Time;durP1;ratioP1;P1;durP2;ratioP2;P2;SDS_P1;SDS_P2;PMS_P1;PMS_P2;Temp;Humidity;BMP_temperature;BMP_pressure;BME280_temperature;BME280_humidity;BME280_pressure;Samples;Min_cycle;Max_cycle;Signal;HPM_P1;HPM_P2
2021/03/26 00:00:19;;;;;;;13.83;9.13;;;;;;;-0.26;100.00;97755.66;5115924;28;20219;-81
2021/03/26 00:02:46;;;;;;;10.67;8.73;;;;;;;-0.46;100.00;97756.38;5116047;28;20187;-81
2021/03/26 00:05:16;;;;;;;9.40;7.73;;;;;;;-0.47;100.00;97767.63;5115807;28;20650;-82
2021/03/26 00:07:43;;;;;;;10.00;7.77;;;;;;;-0.50;100.00;97772.88;5115778;28;20184;-82
2021/03/26 00:10:14;;;;;;;10.73;8.70;;;;;;;-0.43;100.00;97776.94;5115781;28;20230;-81
2021/03/26 00:12:41;;;;;;;11.67;9.63;;;;;;;-0.44;100.00;97780.44;5116137;28;20227;-82
2021/03/26 00:15:11;;;;;;;8.93;8.03;;;;;;;-0.52;100.00;97787.56;5115427;28;20292;-82
2021/03/26 00:17:38;;;;;;;11.97;8.50;;;;;;;-0.66;100.00;97784.63;5115617;28;20249;-81
2021/03/26 00:20:07;;;;;;;8.97;8.03;;;;;;;-0.66;100.00;97789.78;5115848;28;20247;-82
2021/03/26 00:22:33;;;;;;;9.97;8.27;;;;;;;-0.57;100.00;97792.06;5115367;28;20198;-82
2021/03/26 00:25:00;;;;;;;11.07;8.67;;;;;;;-0.72;100.00;97786.53;5115524;28;20278;-81
2021/03/26 00:27:27;;;;;;;9.70;7.73;;;;;;;-0.78;100.00;97806.56;5115346;28;20199;-82
2021/03/26 00:29:54;;;;;;;13.70;10.17;;;;;;;-0.87;100.00;97807.69;5115743;28;20637;-82
2021/03/26 00:32:21;;;;;;;11.60;9.30;;;;;;;-0.86;100.00;97813.72;5115021;28;20654;-82
2021/03/26 00:34:50;;;;;;;11.30;8.03;;;;;;;-0.68;100.00;97813.09;5115380;28;20349;-82
2021/03/26 00:37:17;;;;;;;12.70;10.03;;;;;;;-0.80;100.00;97819.50;5115585;28;20625;-82
2021/03/26 00:39:44;;;;;;;15.30;10.70;;;;;;;-0.82;100.00;97826.47;5115255;27;20312;-82
2021/03/26 00:42:11;;;;;;;15.50;10.67;;;;;;;-0.92;100.00;97830.25;5115047;28;20191;-82
2021/03/26 00:44:38;;;;;;;14.13;10.33;;;;;;;-1.01;100.00;97830.53;5114831;28;20199;-82
2021/03/26 00:47:06;;;;;;;12.20;9.53;;;;;;;-1.01;100.00;97840.84;5114989;28;20200;-82
2021/03/26 00:49:33;;;;;;;13.70;9.97;;;;;;;-1.11;100.00;97834.28;5115364;28;20200;-81
2021/03/26 00:52:00;;;;;;;14.27;10.57;;;;;;;-1.08;100.00;97840.19;5115084;28;20195;-84
2021/03/26 00:54:27;;;;;;;10.83;9.03;;;;;;;-1.06;100.00;97840.16;5115022;28;20199;-84
2021/03/26 00:56:54;;;;;;;9.33;7.20;;;;;;;-1.02;100.00;97844.34;5113983;28;20207;-84
2021/03/26 00:59:21;;;;;;;7.70;6.90;;;;;;;-1.19;100.00;97847.44;5114784;28;20223;-84
2021/03/26 01:01:48;;;;;;;9.93;7.00;;;;;;;-1.26;100.00;97841.63;5114491;27;20191;-84
2021/03/26 01:04:15;;;;;;;8.00;6.70;;;;;;;-1.36;100.00;97835.06;5114640;28;20604;-84
2021/03/26 01:06:42;;;;;;;7.13;6.43;;;;;;;-1.41;100.00;97847.25;5113354;28;20200;-84
2021/03/26 01:09:10;;;;;;;7.20;6.40;;;;;;;-1.25;100.00;97848.50;5113234;28;20199;-83
2021/03/26 01:11:39;;;;;;;9.90;7.23;;;;;;;-1.35;100.00;97853.94;5114323;27;20226;-83
2021/03/26 01:14:09;;;;;;;8.37;6.70;;;;;;;-1.17;100.00;97856.00;5114614;28;20286;-83
2021/03/26 01:16:36;;;;;;;8.00;6.33;;;;;;;-1.27;100.00;97850.25;5114571;28;20235;-83
2021/03/26 01:19:03;;;;;;;7.73;6.40;;;;;;;-1.15;100.00;97856.75;5114426;28;20206;-83
2021/03/26 01:21:34;;;;;;;8.10;6.57;;;;;;;-1.08;100.00;97852.25;5114291;28;20208;-83
2021/03/26 01:24:02;;;;;;;7.97;7.10;;;;;;;-1.20;100.00;97846.59;5114196;28;20184;-83
2021/03/26 01:26:29;;;;;;;7.60;5.87;;;;;;;-1.02;100.00;97845.16;5114228;28;20242;-83
2021/03/26 01:28:56;;;;;;;7.80;6.57;;;;;;;-1.08;100.00;97847.94;5114503;28;20556;-83
2021/03/26 01:31:24;;;;;;;9.63;7.13;;;;;;;-1.04;100.00;97841.81;5114513;28;20666;-83
2021/03/26 01:33:51;;;;;;;7.03;6.33;;;;;;;-1.26;100.00;97839.03;5113817;28;20231;-83
2021/03/26 01:36:18;;;;;;;7.73;6.33;;;;;;;-1.46;100.00;97849.13;5114178;28;20192;-83
2021/03/26 01:38:45;;;;;;;7.23;6.53;;;;;;;-1.75;100.00;97839.69;5113976;28;20286;-83
2021/03/26 01:41:32;;;;;;;7.87;6.93;;;;;;;-1.69;100.00;97847.25;5113910;28;20266;-83
2021/03/26 01:43:59;;;;;;;6.80;6.13;;;;;;;-1.45;100.00;97851.66;5113752;28;20184;-83
2021/03/26 01:46:26;;;;;;;8.40;7.17;;;;;;;-1.57;100.00;97846.03;5113897;28;20246;-82
2021/03/26 01:48:56;;;;;;;7.50;6.37;;;;;;;-1.56;100.00;97851.16;5113716;28;20191;-83
2021/03/26 01:51:25;;;;;;;7.93;7.13;;;;;;;-1.63;100.00;97849.63;5113730;28;20231;-83
2021/03/26 01:53:53;;;;;;;8.70;7.30;;;;;;;-1.57;100.00;97848.59;5113553;28;20199;-83
2021/03/26 01:56:21;;;;;;;9.40;7.80;;;;;;;-1.70;100.00;97851.56;5114019;28;20270;-82
2021/03/26 01:58:47;;;;;;;10.53;8.33;;;;;;;-1.88;100.00;97862.38;5114071;28;20227;-83
2021/03/26 02:01:18;;;;;;;10.23;8.53;;;;;;;-2.14;100.00;97867.41;5113461;28;20223;-82
2021/03/26 02:03:47;;;;;;;7.83;6.87;;;;;;;-1.90;100.00;97861.59;5113191;28;20231;-83
2021/03/26 02:06:18;;;;;;;7.77;6.50;;;;;;;-2.03;100.00;97865.38;5113457;28;20284;-82
2021/03/26 02:08:46;;;;;;;11.07;7.27;;;;;;;-1.80;100.00;97872.47;5113316;28;20219;-83
2021/03/26 02:11:22;;;;;;;8.73;6.83;;;;;;;-1.86;100.00;97868.34;5113121;28;20715;-83
2021/03/26 02:13:50;;;;;;;9.53;7.60;;;;;;;-1.67;100.00;97868.66;5113415;28;20240;-83
2021/03/26 02:16:18;;;;;;;8.67;7.20;;;;;;;-1.95;100.00;97872.00;5113453;28;20192;-82
2021/03/26 02:18:46;;;;;;;9.00;7.70;;;;;;;-1.69;100.00;97873.03;5113280;28;20611;-82
2021/03/26 02:21:17;;;;;;;9.07;6.77;;;;;;;-1.50;100.00;97879.31;5112871;28;20234;-83
2021/03/26 02:23:46;;;;;;;11.13;7.47;;;;;;;-1.51;100.00;97879.38;5113360;28;20260;-83
2021/03/26 02:26:19;;;;;;;10.63;7.50;;;;;;;-1.46;100.00;97880.06;5113537;28;20203;-83
2021/03/26 02:28:47;;;;;;;9.73;7.73;;;;;;;-1.54;100.00;97876.88;5113160;28;20615;-83
2021/03/26 02:31:15;;;;;;;10.47;7.00;;;;;;;-1.61;100.00;97872.78;5112960;28;20583;-83
2021/03/26 02:33:42;;;;;;;12.53;8.20;;;;;;;-1.71;100.00;97865.31;5113154;28;20229;-83
2021/03/26 02:36:42;;;;;;;9.50;7.30;;;;;;;-1.48;100.00;97867.22;5112888;28;20207;-83
2021/03/26 02:39:24;;;;;;;9.17;6.67;;;;;;;-1.44;100.00;97865.41;5079014;28;20274;-84
2021/03/26 02:41:55;;;;;;;7.87;6.30;;;;;;;-1.33;100.00;97867.66;5112388;28;20194;-82
2021/03/26 02:44:31;;;;;;;9.30;6.30;;;;;;;-1.31;100.00;97864.16;5112807;28;20566;-84
2021/03/26 02:47:17;;;;;;;9.23;6.67;;;;;;;-1.30;100.00;97855.50;5112678;28;20244;-83
2021/03/26 02:49:52;;;;;;;7.77;6.73;;;;;;;-1.11;100.00;97849.78;5112784;28;20278;-83
2021/03/26 02:52:28;;;;;;;8.53;5.67;;;;;;;-1.44;100.00;97850.78;5112892;28;20179;-83
2021/03/26 02:55:03;;;;;;;7.60;6.17;;;;;;;-1.35;100.00;97851.38;5112696;28;20190;-84
2021/03/26 02:57:33;;;;;;;9.70;7.13;;;;;;;-1.48;100.00;97844.03;5112570;28;20254;-83
2021/03/26 03:00:09;;;;;;;7.20;6.37;;;;;;;-1.21;100.00;97838.91;5112510;28;20214;-84
2021/03/26 03:02:38;;;;;;;6.07;5.30;;;;;;;-1.41;100.00;97838.69;5112408;28;20571;-81
2021/03/26 03:05:09;;;;;;;6.87;6.10;;;;;;;-1.51;100.00;97838.94;5112562;28;20621;-81
2021/03/26 03:07:42;;;;;;;7.77;5.70;;;;;;;-1.45;100.00;97837.94;5112396;28;20180;-81
2021/03/26 03:10:22;;;;;;;7.70;5.50;;;;;;;-1.18;100.00;97837.97;5112620;28;20176;-81
2021/03/26 03:12:51;;;;;;;6.33;5.47;;;;;;;-1.23;100.00;97843.28;5112370;28;20184;-81
2021/03/26 03:15:22;;;;;;;7.37;6.27;;;;;;;-1.35;100.00;97835.91;5112750;28;20200;-81
2021/03/26 03:17:58;;;;;;;7.07;5.80;;;;;;;-1.34;100.00;97837.59;5112216;28;20183;-81
2021/03/26 03:20:40;;;;;;;6.90;5.57;;;;;;;-1.30;100.00;97837.47;5111619;28;20215;-81
2021/03/26 03:23:13;;;;;;;8.47;6.70;;;;;;;-1.32;100.00;97833.22;5112567;28;20208;-81
2021/03/26 03:25:43;;;;;;;6.77;6.00;;;;;;;-1.55;100.00;97839.94;5112732;28;20195;-81
2021/03/26 03:28:22;;;;;;;7.10;6.10;;;;;;;-1.25;100.00;97843.34;5112465;28;20275;-82
2021/03/26 03:31:02;;;;;;;6.80;6.07;;;;;;;-1.23;100.00;97843.28;5112366;28;20183;-81
2021/03/26 03:33:36;;;;;;;6.77;6.07;;;;;;;-1.15;100.00;97850.75;5112858;28;20620;-81
2021/03/26 03:36:06;;;;;;;8.13;5.73;;;;;;;-1.22;100.00;97842.38;5112585;28;20187;-81
2021/03/26 03:38:51;;;;;;;6.93;5.47;;;;;;;-1.24;100.00;97841.59;5112378;28;20268;-81
2021/03/26 03:41:25;;;;;;;6.23;5.27;;;;;;;-1.29;100.00;97839.13;5111829;28;20290;-81
2021/03/26 03:44:12;;;;;;;5.87;5.20;;;;;;;-1.28;100.00;97832.22;5112475;28;20617;-81
2021/03/26 03:46:47;;;;;;;5.60;4.73;;;;;;;-1.34;100.00;97835.88;5112317;28;20570;-81
2021/03/26 03:49:22;;;;;;;6.10;5.37;;;;;;;-1.59;100.00;97846.09;5112438;28;20278;-81
2021/03/26 03:51:57;;;;;;;10.77;8.70;;;;;;;-1.54;100.00;97843.34;5111719;28;20187;-82
2021/03/26 03:54:29;;;;;;;8.97;7.47;;;;;;;-1.44;100.00;97844.78;5112540;28;20183;-81
2021/03/26 03:57:00;;;;;;;5.63;5.07;;;;;;;-1.45;100.00;97846.50;5112039;28;20755;-81
2021/03/26 03:59:35;;;;;;;8.33;5.83;;;;;;;-1.59;100.00;97822.88;5112199;28;20302;-81
2021/03/26 04:02:08;;;;;;;6.37;5.47;;;;;;;-1.54;100.00;97827.88;5111809;28;20219;-81
2021/03/26 04:04:43;;;;;;;12.73;10.43;;;;;;;-1.49;100.00;97844.06;5112013;28;20376;-81
2021/03/26 04:07:14;;;;;;;12.57;8.37;;;;;;;-1.49;100.00;97856.94;5111872;28;20183;-81
2021/03/26 04:09:47;;;;;;;10.30;8.17;;;;;;;-1.43;100.00;97856.75;5112045;28;20651;-81
2021/03/26 04:12:18;;;;;;;8.13;7.30;;;;;;;-1.40;100.00;97856.69;5111641;28;20186;-81
2021/03/26 04:14:52;;;;;;;6.20;5.60;;;;;;;-1.30;100.00;97857.25;5111923;28;20179;-81
2021/03/26 04:17:24;;;;;;;7.07;6.07;;;;;;;-1.28;100.00;97853.75;5111806;28;20275;-82
2021/03/26 04:19:56;;;;;;;7.00;5.63;;;;;;;-1.32;100.00;97846.97;5111835;28;20595;-81
2021/03/26 04:22:28;;;;;;;8.40;5.93;;;;;;;-1.40;100.00;97854.09;5111481;28;20191;-84
2021/03/26 04:25:02;;;;;;;7.07;6.37;;;;;;;-1.26;100.00;97857.09;5111658;28;20191;-84
2021/03/26 04:27:35;;;;;;;21.20;14.30;;;;;;;-1.26;100.00;97867.41;5111641;28;20565;-84
2021/03/26 04:30:07;;;;;;;20.87;13.03;;;;;;;-1.38;100.00;97870.38;5112117;28;20644;-83
2021/03/26 04:32:34;;;;;;;16.57;11.87;;;;;;;-1.54;100.00;97874.31;5114792;28;20215;-84
2021/03/26 04:35:01;;;;;;;15.73;9.60;;;;;;;-1.53;100.00;97878.56;5115524;28;20238;-84
2021/03/26 04:37:34;;;;;;;13.23;9.93;;;;;;;-1.73;100.00;97881.72;5115032;28;20230;-84
2021/03/26 04:40:09;;;;;;;17.87;13.03;;;;;;;-1.71;100.00;97890.25;5115617;28;20203;-85
2021/03/26 04:42:44;;;;;;;8.83;7.93;;;;;;;-1.48;100.00;97892.19;5115563;28;20270;-84
2021/03/26 04:45:20;;;;;;;9.53;7.27;;;;;;;-1.29;100.00;97877.81;5115520;28;20236;-84
2021/03/26 04:47:56;;;;;;;16.83;11.90;;;;;;;-1.20;100.00;97874.97;5115239;28;20198;-84
2021/03/26 04:50:28;;;;;;;22.40;15.00;;;;;;;-1.22;100.00;97866.44;5115423;28;20187;-84
2021/03/26 04:53:01;;;;;;;16.43;11.70;;;;;;;-1.29;100.00;97859.78;5114834;28;20222;-84
2021/03/26 04:55:36;;;;;;;19.37;14.23;;;;;;;-1.16;100.00;97869.72;5115077;27;20563;-84
2021/03/26 04:58:09;;;;;;;26.63;22.77;;;;;;;-1.34;100.00;97874.56;5114765;28;20179;-83
2021/03/26 05:00:41;;;;;;;11.13;9.60;;;;;;;-1.14;100.00;97867.94;5114530;28;20210;-83
2021/03/26 05:03:22;;;;;;;7.33;6.63;;;;;;;-0.98;100.00;97871.72;5114675;28;20191;-83
2021/03/26 05:05:51;;;;;;;10.40;8.50;;;;;;;-0.73;100.00;97856.28;5114676;28;20664;-84
2021/03/26 05:08:19;;;;;;;19.17;14.73;;;;;;;-1.00;100.00;97858.03;5114595;27;20196;-83
2021/03/26 05:10:48;;;;;;;21.73;16.07;;;;;;;-1.36;100.00;97863.44;5114828;28;20214;-83
2021/03/26 05:13:22;;;;;;;22.20;15.10;;;;;;;-1.08;100.00;97875.47;5114030;28;20202;-83
2021/03/26 05:15:55;;;;;;;17.83;14.47;;;;;;;-1.32;100.00;97885.66;5114520;28;20217;-84
2021/03/26 05:18:28;;;;;;;20.03;13.70;;;;;;;-1.17;100.00;97886.09;5114324;28;20188;-83
2021/03/26 05:21:00;;;;;;;18.30;12.00;;;;;;;-1.06;100.00;97890.03;5114296;28;20214;-83
2021/03/26 05:23:34;;;;;;;10.27;9.27;;;;;;;-0.72;100.00;97879.50;5114025;28;20188;-84
2021/03/26 05:26:02;;;;;;;9.97;8.10;;;;;;;-0.43;100.00;97866.50;5114350;28;20263;-84
2021/03/26 05:28:33;;;;;;;8.57;7.53;;;;;;;-0.27;100.00;97853.03;5114133;28;20230;-84
2021/03/26 05:31:07;;;;;;;8.67;7.40;;;;;;;-0.09;100.00;97850.69;5114080;28;20180;-82
2021/03/26 05:33:38;;;;;;;12.37;8.87;;;;;;;-0.03;100.00;97835.81;5114134;28;20184;-82
2021/03/26 05:36:09;;;;;;;14.57;10.90;;;;;;;0.11;100.00;97818.97;5114114;28;20230;-82
2021/03/26 05:38:41;;;;;;;12.83;10.83;;;;;;;0.25;100.00;97810.69;5114061;28;20245;-82
2021/03/26 05:41:36;;;;;;;12.33;11.00;;;;;;;0.42;100.00;97803.13;5113911;27;20218;-82
2021/03/26 05:44:29;;;;;;;10.90;9.80;;;;;;;0.60;100.00;97799.84;5097048;28;20745;-83
2021/03/26 05:47:21;;;;;;;10.63;9.53;;;;;;;0.64;100.00;97798.81;5096906;28;20227;-83
2021/03/26 05:50:03;;;;;;;8.20;7.20;;;;;;;0.59;100.00;97799.88;5113859;28;20183;-82
2021/03/26 05:52:54;;;;;;;9.07;6.13;;;;;;;0.67;100.00;97792.69;5113565;28;20233;-82
2021/03/26 05:55:36;;;;;;;5.33;4.83;;;;;;;0.82;100.00;97788.63;5113888;28;20240;-82
2021/03/26 05:58:19;;;;;;;5.73;4.30;;;;;;;0.88;100.00;97780.63;5113319;28;20191;-82
2021/03/26 06:01:09;;;;;;;6.17;4.97;;;;;;;0.88;100.00;97785.81;5113649;28;20207;-82
2021/03/26 06:03:59;;;;;;;8.10;5.40;;;;;;;0.84;100.00;97782.50;5113509;27;20235;-82
2021/03/26 06:06:59;;;;;;;6.00;4.60;;;;;;;1.12;100.00;97782.22;5113568;28;20195;-81
2021/03/26 06:10:01;;;;;;;7.43;5.80;;;;;;;1.19;100.00;97767.25;5110954;28;20203;-81
2021/03/26 06:13:13;;;;;;;7.57;5.77;;;;;;;1.21;100.00;97767.19;5113399;28;20266;-83
2021/03/26 06:16:27;;;;;;;5.57;4.83;;;;;;;1.19;100.00;97755.16;5113496;28;20228;-86
2021/03/26 06:19:42;;;;;;;8.80;4.77;;;;;;;1.34;100.00;97753.66;5112642;27;20627;-84
2021/03/26 06:22:45;;;;;;;5.77;4.50;;;;;;;1.43;100.00;97742.06;5112010;28;20274;-80
2021/03/26 06:25:39;;;;;;;4.50;4.10;;;;;;;1.52;100.00;97744.25;5093211;28;20263;-83
2021/03/26 06:28:29;;;;;;;7.30;4.60;;;;;;;1.75;100.00;97725.09;5104882;28;20245;-83
2021/03/26 06:31:31;;;;;;;18.87;14.47;;;;;;;1.86;100.00;97722.84;5106696;28;20222;-82
2021/03/26 06:34:55;;;;;;;13.17;7.90;;;;;;;1.90;100.00;97706.28;5067565;28;20307;-83
2021/03/26 06:37:38;;;;;;;8.87;7.13;;;;;;;2.05;100.00;97699.53;5027139;28;20267;-83
2021/03/26 06:40:32;;;;;;;9.13;6.30;;;;;;;2.19;100.00;97696.31;5112509;28;20294;-83
2021/03/26 06:43:23;;;;;;;13.27;11.00;;;;;;;2.28;100.00;97695.84;5103361;28;20199;-84
2021/03/26 06:46:23;;;;;;;67.77;40.10;;;;;;;2.36;100.00;97691.16;5113044;28;20184;-84
2021/03/26 06:48:59;;;;;;;138.63;64.97;;;;;;;2.36;100.00;97692.91;5112828;28;20644;-82
2021/03/26 06:51:40;;;;;;;53.60;31.80;;;;;;;2.47;100.00;97695.84;5098631;28;20741;-83
2021/03/26 06:54:33;;;;;;;20.73;16.07;;;;;;;2.61;100.00;97688.22;5106712;28;20198;-84
2021/03/26 06:57:15;;;;;;;7.87;6.80;;;;;;;2.66;100.00;97676.75;5091668;28;20708;-85
2021/03/26 06:59:57;;;;;;;9.60;7.47;;;;;;;2.81;100.00;97676.03;5097333;28;20192;-88
2021/03/26 07:02:58;;;;;;;6.50;5.53;;;;;;;2.96;100.00;97670.06;5111724;28;20195;-87
2021/03/26 07:06:01;;;;;;;7.77;6.80;;;;;;;3.04;100.00;97674.84;5113358;28;20280;-87
2021/03/26 07:08:43;;;;;;;5.60;5.10;;;;;;;3.16;100.00;97674.25;5110448;28;20203;-86
2021/03/26 07:11:40;;;;;;;5.87;4.80;;;;;;;3.19;100.00;97673.25;5112645;28;20187;-83
2021/03/26 07:14:19;;;;;;;7.20;5.53;;;;;;;3.32;100.00;97661.28;5109094;28;20188;-85
2021/03/26 07:17:21;;;;;;;5.97;5.33;;;;;;;3.18;100.00;97640.38;5112805;28;20262;-84
2021/03/26 07:20:19;;;;;;;7.33;5.50;;;;;;;3.48;100.00;97651.78;5112709;28;20289;-85
2021/03/26 07:23:30;;;;;;;7.13;4.73;;;;;;;3.54;100.00;97629.84;5075138;28;20320;-83
2021/03/26 07:26:18;;;;;;;10.23;5.33;;;;;;;3.96;100.00;97618.03;5091832;28;20196;-83
2021/03/26 07:29:00;;;;;;;4.90;4.20;;;;;;;4.35;100.00;97599.31;5092380;28;20267;-83
2021/03/26 07:31:36;;;;;;;4.30;3.90;;;;;;;4.61;100.00;97576.19;5092171;28;20190;-84
2021/03/26 07:34:18;;;;;;;4.63;4.23;;;;;;;4.67;100.00;97570.59;5091986;28;20271;-82
2021/03/26 07:36:58;;;;;;;4.23;3.40;;;;;;;4.47;100.00;97538.75;5091706;28;20181;-83
2021/03/26 07:39:43;;;;;;;3.87;3.47;;;;;;;4.52;100.00;97536.72;5092025;28;20189;-86
2021/03/26 07:42:41;;;;;;;4.43;3.93;;;;;;;4.79;100.00;97527.38;5091981;28;20195;-83
2021/03/26 07:45:23;;;;;;;4.47;4.00;;;;;;;4.92;100.00;97523.94;5092213;28;20188;-83
2021/03/26 07:48:22;;;;;;;4.13;3.70;;;;;;;4.96;100.00;97504.56;5091942;28;20571;-85
2021/03/26 07:50:57;;;;;;;3.90;3.50;;;;;;;5.17;100.00;97463.31;5092114;28;20259;-85
2021/03/26 07:53:45;;;;;;;6.07;3.53;;;;;;;5.32;100.00;97451.09;5092382;28;20184;-86
2021/03/26 07:56:50;;;;;;;4.33;3.93;;;;;;;5.49;100.00;97427.38;5091903;28;20279;-85
2021/03/26 07:59:55;;;;;;;4.37;3.80;;;;;;;5.75;100.00;97390.97;5066044;28;20196;-84
2021/03/26 08:02:38;;;;;;;4.23;3.83;;;;;;;6.42;100.00;97304.66;5086587;28;20202;-86
2021/03/26 08:05:14;;;;;;;3.70;3.40;;;;;;;6.59;100.00;97278.19;5092405;28;20793;-85
2021/03/26 08:08:13;;;;;;;3.97;3.60;;;;;;;7.20;100.00;97191.84;5097694;28;20181;-86
2021/03/26 08:10:49;;;;;;;5.13;4.40;;;;;;;7.50;100.00;97122.47;5116242;28;20562;-87
2021/03/26 08:13:40;;;;;;;5.40;2.93;;;;;;;7.90;100.00;97062.63;5115826;28;20176;-84
2021/03/26 08:16:38;;;;;;;4.37;3.47;;;;;;;7.90;100.00;96973.63;5115516;28;20317;-84
2021/03/26 08:19:21;;;;;;;5.80;4.90;;;;;;;8.27;100.00;96926.06;5112379;28;20207;-83
2021/03/26 08:21:57;;;;;;;4.40;3.77;;;;;;;8.62;100.00;96852.38;5115727;28;20233;-87
2021/03/26 08:25:02;;;;;;;3.90;3.33;;;;;;;7.87;100.00;96696.47;5115866;28;20199;-87
2021/03/26 08:27:40;;;;;;;5.27;4.37;;;;;;;8.46;100.00;96850.25;5109154;28;20687;-86
2021/03/26 08:30:30;;;;;;;4.73;3.97;;;;;;;8.93;100.00;96705.53;5116443;28;20235;-86
2021/03/26 08:33:13;;;;;;;3.53;3.20;;;;;;;9.08;100.00;96675.34;5115849;28;20176;-84
2021/03/26 08:35:57;;;;;;;4.93;4.43;;;;;;;9.46;100.00;96686.75;5115684;28;20579;-84
2021/03/26 08:38:36;;;;;;;4.43;3.90;;;;;;;9.56;100.00;96514.38;5115562;28;20192;-87
2021/03/26 08:41:09;;;;;;;4.23;3.63;;;;;;;9.67;100.00;96382.13;5115725;28;20210;-87
2021/03/26 08:43:38;;;;;;;3.97;3.60;;;;;;;9.82;100.00;96056.91;5115860;28;20262;-87
2021/03/26 08:46:09;;;;;;;5.63;4.30;;;;;;;9.67;100.00;95101.63;5115618;28;20286;-87
2021/03/26 08:48:43;;;;;;;5.07;3.93;;;;;;;10.22;100.00;95068.78;5115816;28;20188;-87
2021/03/26 08:51:52;;;;;;;4.33;3.90;;;;;;;10.51;100.00;95122.25;5115742;28;20194;-87
2021/03/26 08:54:35;;;;;;;4.10;3.53;;;;;;;10.86;100.00;95250.19;5114628;28;20195;-87
2021/03/26 08:57:16;;;;;;;5.37;3.33;;;;;;;10.61;100.00;95339.03;5115597;28;20194;-87
2021/03/26 09:00:15;;;;;;;4.57;3.90;;;;;;;11.10;100.00;95582.19;5115765;28;20196;-87
2021/03/26 09:03:15;;;;;;;3.80;3.40;;;;;;;10.51;100.00;95756.22;5115469;28;20236;-87
2021/03/26 09:05:58;;;;;;;3.63;3.30;;;;;;;10.79;100.00;96081.75;5115430;28;20179;-87
2021/03/26 09:08:58;;;;;;;3.53;3.20;;;;;;;10.93;100.00;96138.94;5115402;28;20184;-87
2021/03/26 09:11:44;;;;;;;6.40;3.93;;;;;;;10.51;100.00;96024.25;5089652;28;20352;-87
2021/03/26 09:14:31;;;;;;;4.30;3.67;;;;;;;10.70;100.00;96100.16;5115127;28;20192;-87
2021/03/26 09:17:01;;;;;;;3.60;3.30;;;;;;;9.90;100.00;96180.31;5103695;28;20260;-89
2021/03/26 09:19:34;;;;;;;3.70;3.10;;;;;;;8.88;100.00;96209.75;5096859;28;20192;-87
2021/03/26 09:22:17;;;;;;;4.87;3.40;;;;;;;8.99;100.00;96152.66;5094831;28;20204;-87
2021/03/26 09:25:19;;;;;;;5.50;4.37;;;;;;;8.70;100.00;96215.81;5094767;28;20660;-88
2021/03/26 09:27:52;;;;;;;4.17;3.33;;;;;;;9.73;100.00;96205.66;5112216;28;20191;-87
2021/03/26 09:30:24;;;;;;;3.93;3.30;;;;;;;10.10;100.00;96202.75;5108824;28;20195;-87
2021/03/26 09:32:55;;;;;;;5.53;4.87;;;;;;;10.47;100.00;96241.84;5115378;28;20271;-87
2021/03/26 09:35:28;;;;;;;4.30;3.90;;;;;;;10.25;100.00;96245.00;5115455;28;20219;-87
2021/03/26 09:37:58;;;;;;;7.97;5.57;;;;;;;10.12;100.00;96245.44;5115176;28;20217;-87
2021/03/26 09:40:34;;;;;;;5.57;4.20;;;;;;;10.21;100.00;96268.13;5114578;28;20306;-87
2021/03/26 09:43:18;;;;;;;3.97;3.27;;;;;;;10.38;100.00;96290.06;5114709;28;20243;-87
2021/03/26 09:45:53;;;;;;;5.03;4.40;;;;;;;10.58;100.00;96369.50;5114672;28;20195;-87
2021/03/26 09:48:56;;;;;;;8.10;5.33;;;;;;;10.58;100.00;96269.63;5099679;28;20192;-87
2021/03/26 09:51:40;;;;;;;5.97;4.33;;;;;;;10.76;100.00;96266.91;5090562;28;20203;-87
2021/03/26 09:54:14;;;;;;;6.37;4.23;;;;;;;11.32;100.00;96330.34;5094473;28;20254;-87
2021/03/26 09:56:47;;;;;;;7.80;4.23;;;;;;;12.66;100.00;96427.53;5094303;28;20176;-86
2021/03/26 09:59:25;;;;;;;5.33;3.93;;;;;;;13.47;100.00;96476.63;5094588;28;20748;-87
2021/03/26 10:02:02;;;;;;;4.17;3.77;;;;;;;12.15;100.00;96527.84;5094262;28;20208;-87
2021/03/26 10:04:35;;;;;;;4.53;3.63;;;;;;;11.12;100.00;96448.19;5093843;28;20277;-87
2021/03/26 10:07:17;;;;;;;3.87;3.27;;;;;;;11.82;100.00;96498.78;5094015;28;20180;-87
2021/03/26 10:09:48;;;;;;;4.27;3.90;;;;;;;11.51;100.00;96495.06;5094350;28;20211;-87
2021/03/26 10:12:18;;;;;;;4.67;3.77;;;;;;;11.64;100.00;96609.47;5094071;28;20245;-87
2021/03/26 10:14:59;;;;;;;3.70;3.40;;;;;;;11.38;100.00;96593.69;5094234;28;20199;-87
2021/03/26 10:17:52;;;;;;;6.07;3.90;;;;;;;11.01;100.00;96564.97;5093793;28;20187;-87
2021/03/26 10:20:24;;;;;;;5.00;4.50;;;;;;;11.80;100.00;96532.31;5093745;28;20301;-87
2021/03/26 10:23:05;;;;;;;5.80;4.30;;;;;;;11.94;100.00;96552.00;5093857;28;20239;-87
2021/03/26 10:25:36;;;;;;;7.00;3.93;;;;;;;11.18;100.00;96603.56;5094064;28;20204;-87
2021/03/26 10:28:14;;;;;;;5.23;4.47;;;;;;;11.05;100.00;96582.13;5093495;28;20664;-87
2021/03/26 10:30:44;;;;;;;5.00;4.50;;;;;;;10.99;100.00;96574.84;5093672;28;20176;-87
2021/03/26 10:33:13;;;;;;;4.23;3.70;;;;;;;10.81;100.00;96632.72;5093676;28;20228;-87
2021/03/26 10:35:52;;;;;;;7.13;4.90;;;;;;;11.16;100.00;96607.34;5113929;28;20195;-88
2021/03/26 10:38:29;;;;;;;4.53;3.93;;;;;;;11.38;100.00;96682.34;5114065;28;20222;-88
2021/03/26 10:41:01;;;;;;;4.00;3.60;;;;;;;11.08;100.00;96702.81;5114633;28;20239;-88
2021/03/26 10:43:35;;;;;;;4.73;4.10;;;;;;;11.31;100.00;96649.72;5113900;28;20183;-88
2021/03/26 10:46:07;;;;;;;4.13;3.20;;;;;;;11.11;100.00;96713.03;5113766;28;20176;-89
2021/03/26 10:48:41;;;;;;;3.83;2.67;;;;;;;11.22;100.00;96772.47;5113644;27;20191;-88
2021/03/26 10:51:26;;;;;;;4.47;3.47;;;;;;;12.17;100.00;96733.22;5113603;28;20187;-88
2021/03/26 10:53:59;;;;;;;3.80;3.40;;;;;;;13.25;100.00;96776.47;5113715;28;20687;-88
2021/03/26 10:56:41;;;;;;;5.70;4.60;;;;;;;13.69;100.00;96782.28;5113678;28;20632;-88
2021/03/26 10:59:17;;;;;;;5.93;3.17;;;;;;;13.93;100.00;96852.78;5113421;28;20188;-88
2021/03/26 11:01:48;;;;;;;4.10;3.40;;;;;;;13.76;100.00;96870.44;5113601;28;20244;-88
2021/03/26 11:04:31;;;;;;;5.43;4.90;;;;;;;13.52;100.00;96883.63;5112937;28;20236;-88
2021/03/26 11:07:07;;;;;;;3.67;2.50;;;;;;;13.00;100.00;96920.69;5113711;28;20291;-89
2021/03/26 11:09:40;;;;;;;3.37;3.00;;;;;;;12.91;100.00;96945.38;5113830;28;20179;-88
2021/03/26 11:12:22;;;;;;;6.80;3.13;;;;;;;13.34;100.00;96918.06;5113935;28;20183;-88
2021/03/26 11:14:57;;;;;;;6.77;5.27;;;;;;;13.76;100.00;96947.06;5113646;28;20191;-88
2021/03/26 11:17:39;;;;;;;4.37;3.93;;;;;;;12.83;100.00;96959.34;5113883;28;20182;-88
2021/03/26 11:20:28;;;;;;;4.67;4.13;;;;;;;12.71;100.00;96960.56;5113614;28;20194;-89
2021/03/26 11:23:00;;;;;;;6.37;4.33;;;;;;;12.90;100.00;96952.47;5100788;28;20210;-89
2021/03/26 11:25:34;;;;;;;6.37;3.83;;;;;;;12.75;100.00;96965.41;5113141;28;20185;-89
2021/03/26 11:28:03;;;;;;;2.37;2.17;;;;;;;12.42;100.00;96980.16;5113628;28;20188;-89
2021/03/26 11:30:40;;;;;;;5.70;3.73;;;;;;;13.02;100.00;96985.53;5110769;28;20234;-89
2021/03/26 11:33:23;;;;;;;3.00;2.60;;;;;;;12.95;100.00;96997.66;5093208;28;20640;-87
2021/03/26 11:35:53;;;;;;;3.10;2.47;;;;;;;13.63;100.00;96990.78;5093274;28;20664;-88
2021/03/26 11:38:24;;;;;;;11.27;3.67;;;;;;;13.21;100.00;96995.00;5092709;28;20227;-88
2021/03/26 11:41:10;;;;;;;3.80;3.40;;;;;;;12.37;100.00;97000.88;5094981;28;20201;-88
2021/03/26 11:43:43;;;;;;;4.07;3.67;;;;;;;12.93;100.00;96989.09;5097086;28;20184;-88
2021/03/26 11:46:16;;;;;;;3.77;2.57;;;;;;;13.01;100.00;96999.69;5096970;28;20183;-89
2021/03/26 11:49:04;;;;;;;5.10;3.43;;;;;;;12.63;100.00;97000.09;5096606;28;20232;-88
2021/03/26 11:51:35;;;;;;;5.30;3.90;;;;;;;12.87;100.00;96994.97;5096852;28;20701;-88
2021/03/26 11:54:12;;;;;;;3.50;3.10;;;;;;;12.97;100.00;97003.63;5096841;28;20211;-88
2021/03/26 11:56:55;;;;;;;5.17;3.90;;;;;;;13.52;100.00;96995.34;5096499;28;20215;-88
2021/03/26 11:59:57;;;;;;;4.60;3.10;;;;;;;13.61;100.00;96998.84;5096368;28;20188;-88
2021/03/26 12:02:59;;;;;;;4.97;3.37;;;;;;;14.04;100.00;97003.09;5096307;28;20220;-88
2021/03/26 12:05:37;;;;;;;4.80;3.80;;;;;;;14.41;100.00;96991.25;5095972;28;20234;-88
2021/03/26 12:08:12;;;;;;;3.00;2.80;;;;;;;13.44;100.00;96995.34;5096582;28;20188;-88
2021/03/26 12:10:44;;;;;;;4.40;3.20;;;;;;;13.60;100.00;96991.91;5096436;28;20191;-87
2021/03/26 12:13:20;;;;;;;6.23;3.20;;;;;;;12.77;100.00;96992.44;5096354;28;20216;-87